sensor_id;sensor_type;location;lat;lon;timestamp;P1;durP1;ratioP1;P2;durP2;ratioP2
7231;SDS011;3657;49.630;11.018;2023-07-09T00:01:43;29.97;;;28.87;;
7231;SDS011;3657;49.630;11.018;2023-07-09T00:04:10;27.20;;;26.30;;
7231;SDS011;3657;49.630;11.018;2023-07-09T00:06:37;28.27;;;27.10;;
7231;SDS011;3657;49.630;11.018;2023-07-09T00:09:04;29.93;;;28.93;;
7231;SDS011;3657;49.630;11.018;2023-07-09T00:11:32;28.30;;;27.30;;
7231;SDS011;3657;49.630;11.018;2023-07-09T00:14:00;30.47;;;29.30;;
7231;SDS011;3657;49.630;11.018;2023-07-09T00:16:27;29.53;;;28.40;;
7231;SDS011;3657;49.630;11.018;2023-07-09T00:18:54;29.93;;;28.73;;
7231;SDS011;3657;49.630;11.018;2023-07-09T00:21:21;29.50;;;28.37;;
7231;SDS011;3657;49.630;11.018;2023-07-09T00:23:48;31.87;;;30.47;;
7231;SDS011;3657;49.630;11.018;2023-07-09T00:26:16;32.20;;;31.00;;
7231;SDS011;3657;49.630;11.018;2023-07-09T00:28:45;30.97;;;29.77;;
7231;SDS011;3657;49.630;11.018;2023-07-09T00:31:15;29.77;;;28.67;;
7231;SDS011;3657;49.630;11.018;2023-07-09T00:33:42;31.23;;;30.03;;
7231;SDS011;3657;49.630;11.018;2023-07-09T00:36:13;29.60;;;28.63;;
7231;SDS011;3657;49.630;11.018;2023-07-09T00:38:42;31.87;;;30.67;;
7231;SDS011;3657;49.630;11.018;2023-07-09T00:41:13;33.87;;;32.47;;
7231;SDS011;3657;49.630;11.018;2023-07-09T00:43:43;33.40;;;32.00;;
7231;SDS011;3657;49.630;11.018;2023-07-09T00:46:16;32.63;;;31.47;;
7231;SDS011;3657;49.630;11.018;2023-07-09T00:49:05;34.73;;;33.37;;
7231;SDS011;3657;49.630;11.018;2023-07-09T00:51:36;35.57;;;34.17;;
7231;SDS011;3657;49.630;11.018;2023-07-09T00:54:07;34.40;;;32.97;;
7231;SDS011;3657;49.630;11.018;2023-07-09T00:56:42;34.13;;;32.83;;
7231;SDS011;3657;49.630;11.018;2023-07-09T00:59:11;36.63;;;35.13;;
7231;SDS011;3657;49.630;11.018;2023-07-09T01:01:42;36.93;;;35.37;;
7231;SDS011;3657;49.630;11.018;2023-07-09T01:04:13;35.00;;;33.60;;
7231;SDS011;3657;49.630;11.018;2023-07-09T01:06:43;35.13;;;33.70;;
7231;SDS011;3657;49.630;11.018;2023-07-09T01:09:13;33.13;;;31.73;;
7231;SDS011;3657;49.630;11.018;2023-07-09T01:11:39;34.67;;;33.27;;
7231;SDS011;3657;49.630;11.018;2023-07-09T01:14:07;33.53;;;32.13;;
7231;SDS011;3657;49.630;11.018;2023-07-09T01:16:36;34.83;;;33.43;;
7231;SDS011;3657;49.630;11.018;2023-07-09T01:19:04;33.80;;;32.40;;
7231;SDS011;3657;49.630;11.018;2023-07-09T01:21:33;35.17;;;33.57;;
7231;SDS011;3657;49.630;11.018;2023-07-09T01:24:10;34.47;;;32.97;;
7231;SDS011;3657;49.630;11.018;2023-07-09T01:26:39;34.57;;;32.93;;
7231;SDS011;3657;49.630;11.018;2023-07-09T01:29:06;35.77;;;34.17;;
7231;SDS011;3657;49.630;11.018;2023-07-09T01:31:33;36.27;;;34.67;;
7231;SDS011;3657;49.630;11.018;2023-07-09T01:34:00;35.00;;;33.40;;
7231;SDS011;3657;49.630;11.018;2023-07-09T01:36:27;37.97;;;36.20;;
7231;SDS011;3657;49.630;11.018;2023-07-09T01:38:55;35.40;;;33.70;;
7231;SDS011;3657;49.630;11.018;2023-07-09T01:41:22;37.73;;;35.93;;
7231;SDS011;3657;49.630;11.018;2023-07-09T01:43:48;38.60;;;36.73;;
7231;SDS011;3657;49.630;11.018;2023-07-09T01:46:15;38.17;;;36.37;;
7231;SDS011;3657;49.630;11.018;2023-07-09T01:48:42;38.80;;;36.90;;
7231;SDS011;3657;49.630;11.018;2023-07-09T01:51:09;38.37;;;36.47;;
7231;SDS011;3657;49.630;11.018;2023-07-09T01:53:38;38.33;;;36.63;;
7231;SDS011;3657;49.630;11.018;2023-07-09T01:56:07;38.23;;;36.53;;
7231;SDS011;3657;49.630;11.018;2023-07-09T01:58:35;37.93;;;36.20;;
7231;SDS011;3657;49.630;11.018;2023-07-09T02:01:06;39.60;;;37.70;;
7231;SDS011;3657;49.630;11.018;2023-07-09T02:03:33;39.80;;;37.97;;
7231;SDS011;3657;49.630;11.018;2023-07-09T02:06:00;38.23;;;36.53;;
7231;SDS011;3657;49.630;11.018;2023-07-09T02:08:27;40.80;;;38.77;;
7231;SDS011;3657;49.630;11.018;2023-07-09T02:10:54;40.33;;;38.43;;
7231;SDS011;3657;49.630;11.018;2023-07-09T02:13:22;40.50;;;38.40;;
7231;SDS011;3657;49.630;11.018;2023-07-09T02:15:49;41.83;;;39.57;;
7231;SDS011;3657;49.630;11.018;2023-07-09T02:18:15;39.50;;;37.47;;
7231;SDS011;3657;49.630;11.018;2023-07-09T02:20:42;39.03;;;36.90;;
7231;SDS011;3657;49.630;11.018;2023-07-09T02:23:11;40.97;;;38.97;;
7231;SDS011;3657;49.630;11.018;2023-07-09T02:25:38;39.33;;;37.53;;
7231;SDS011;3657;49.630;11.018;2023-07-09T02:28:04;37.53;;;35.40;;
7231;SDS011;3657;49.630;11.018;2023-07-09T02:30:32;37.23;;;35.53;;
7231;SDS011;3657;49.630;11.018;2023-07-09T02:32:59;38.43;;;36.67;;
7231;SDS011;3657;49.630;11.018;2023-07-09T02:35:26;36.20;;;34.60;;
7231;SDS011;3657;49.630;11.018;2023-07-09T02:37:52;37.03;;;35.43;;
7231;SDS011;3657;49.630;11.018;2023-07-09T02:40:19;37.97;;;36.17;;
7231;SDS011;3657;49.630;11.018;2023-07-09T02:42:46;39.53;;;37.37;;
7231;SDS011;3657;49.630;11.018;2023-07-09T02:45:12;36.00;;;34.50;;
7231;SDS011;3657;49.630;11.018;2023-07-09T02:47:40;38.83;;;36.77;;
7231;SDS011;3657;49.630;11.018;2023-07-09T02:50:07;40.30;;;38.30;;
7231;SDS011;3657;49.630;11.018;2023-07-09T02:52:34;40.90;;;38.97;;
7231;SDS011;3657;49.630;11.018;2023-07-09T02:55:01;43.20;;;41.10;;
7231;SDS011;3657;49.630;11.018;2023-07-09T02:57:28;39.83;;;37.93;;
7231;SDS011;3657;49.630;11.018;2023-07-09T02:59:55;40.90;;;38.87;;
7231;SDS011;3657;49.630;11.018;2023-07-09T03:02:21;33.63;;;32.23;;
7231;SDS011;3657;49.630;11.018;2023-07-09T03:04:49;40.87;;;38.53;;
7231;SDS011;3657;49.630;11.018;2023-07-09T03:07:16;38.70;;;36.97;;
7231;SDS011;3657;49.630;11.018;2023-07-09T03:09:43;38.10;;;36.33;;
7231;SDS011;3657;49.630;11.018;2023-07-09T03:12:09;39.30;;;37.67;;
7231;SDS011;3657;49.630;11.018;2023-07-09T03:14:36;41.23;;;39.43;;
7231;SDS011;3657;49.630;11.018;2023-07-09T03:17:03;40.63;;;38.67;;
7231;SDS011;3657;49.630;11.018;2023-07-09T03:19:30;41.50;;;39.60;;
7231;SDS011;3657;49.630;11.018;2023-07-09T03:21:58;40.77;;;38.97;;
7231;SDS011;3657;49.630;11.018;2023-07-09T03:24:24;41.90;;;40.10;;
7231;SDS011;3657;49.630;11.018;2023-07-09T03:26:51;42.00;;;40.00;;
7231;SDS011;3657;49.630;11.018;2023-07-09T03:29:18;40.63;;;38.87;;
7231;SDS011;3657;49.630;11.018;2023-07-09T03:31:45;41.87;;;39.80;;
7231;SDS011;3657;49.630;11.018;2023-07-09T03:34:11;39.83;;;38.23;;
7231;SDS011;3657;49.630;11.018;2023-07-09T03:36:38;41.33;;;39.53;;
7231;SDS011;3657;49.630;11.018;2023-07-09T03:39:06;39.13;;;37.57;;
7231;SDS011;3657;49.630;11.018;2023-07-09T03:41:33;40.37;;;38.77;;
7231;SDS011;3657;49.630;11.018;2023-07-09T03:44:00;41.30;;;39.60;;
7231;SDS011;3657;49.630;11.018;2023-07-09T03:46:26;43.17;;;41.20;;
7231;SDS011;3657;49.630;11.018;2023-07-09T03:48:53;41.30;;;39.60;;
7231;SDS011;3657;49.630;11.018;2023-07-09T03:51:20;40.87;;;39.23;;
7231;SDS011;3657;49.630;11.018;2023-07-09T03:53:47;41.80;;;40.00;;
7231;SDS011;3657;49.630;11.018;2023-07-09T03:56:15;42.87;;;41.17;;
7231;SDS011;3657;49.630;11.018;2023-07-09T03:58:42;40.63;;;38.93;;
7231;SDS011;3657;49.630;11.018;2023-07-09T04:01:08;41.70;;;39.97;;
7231;SDS011;3657;49.630;11.018;2023-07-09T04:03:35;40.50;;;38.70;;
7231;SDS011;3657;49.630;11.018;2023-07-09T04:06:02;41.50;;;39.90;;
7231;SDS011;3657;49.630;11.018;2023-07-09T04:08:28;42.47;;;40.57;;
7231;SDS011;3657;49.630;11.018;2023-07-09T04:10:58;42.27;;;40.47;;
7231;SDS011;3657;49.630;11.018;2023-07-09T04:13:27;42.20;;;40.50;;
7231;SDS011;3657;49.630;11.018;2023-07-09T04:15:54;40.80;;;39.07;;
7231;SDS011;3657;49.630;11.018;2023-07-09T04:18:21;41.40;;;39.80;;
7231;SDS011;3657;49.630;11.018;2023-07-09T04:20:48;42.57;;;40.77;;
7231;SDS011;3657;49.630;11.018;2023-07-09T04:23:15;42.73;;;41.07;;
7231;SDS011;3657;49.630;11.018;2023-07-09T04:25:42;41.73;;;39.93;;
7231;SDS011;3657;49.630;11.018;2023-07-09T04:28:09;42.67;;;40.90;;
7231;SDS011;3657;49.630;11.018;2023-07-09T04:30:37;41.33;;;39.67;;
7231;SDS011;3657;49.630;11.018;2023-07-09T04:33:03;45.00;;;42.90;;
7231;SDS011;3657;49.630;11.018;2023-07-09T04:35:31;43.90;;;41.90;;
7231;SDS011;3657;49.630;11.018;2023-07-09T04:37:57;43.73;;;41.83;;
7231;SDS011;3657;49.630;11.018;2023-07-09T04:40:24;45.00;;;43.17;;
7231;SDS011;3657;49.630;11.018;2023-07-09T04:42:51;45.13;;;43.03;;
7231;SDS011;3657;49.630;11.018;2023-07-09T04:45:18;44.67;;;42.60;;
7231;SDS011;3657;49.630;11.018;2023-07-09T04:47:46;40.83;;;39.23;;
7231;SDS011;3657;49.630;11.018;2023-07-09T04:50:12;42.60;;;40.90;;
7231;SDS011;3657;49.630;11.018;2023-07-09T04:52:39;42.60;;;40.80;;
7231;SDS011;3657;49.630;11.018;2023-07-09T04:55:06;44.10;;;42.07;;
7231;SDS011;3657;49.630;11.018;2023-07-09T04:57:33;35.93;;;34.53;;
7231;SDS011;3657;49.630;11.018;2023-07-09T05:00:00;37.93;;;36.33;;
7231;SDS011;3657;49.630;11.018;2023-07-09T05:02:29;39.63;;;38.03;;
7231;SDS011;3657;49.630;11.018;2023-07-09T05:04:58;38.60;;;37.00;;
7231;SDS011;3657;49.630;11.018;2023-07-09T05:07:25;37.20;;;35.90;;
7231;SDS011;3657;49.630;11.018;2023-07-09T05:09:52;37.37;;;35.87;;
7231;SDS011;3657;49.630;11.018;2023-07-09T05:12:19;36.03;;;34.73;;
7231;SDS011;3657;49.630;11.018;2023-07-09T05:14:46;36.33;;;35.03;;
7231;SDS011;3657;49.630;11.018;2023-07-09T05:17:12;39.33;;;37.73;;
7231;SDS011;3657;49.630;11.018;2023-07-09T05:19:39;38.60;;;36.80;;
7231;SDS011;3657;49.630;11.018;2023-07-09T05:22:07;38.10;;;36.50;;
7231;SDS011;3657;49.630;11.018;2023-07-09T05:24:34;36.07;;;34.20;;
7231;SDS011;3657;49.630;11.018;2023-07-09T05:27:01;35.60;;;34.30;;
7231;SDS011;3657;49.630;11.018;2023-07-09T05:29:28;34.80;;;33.47;;
7231;SDS011;3657;49.630;11.018;2023-07-09T05:31:54;37.67;;;36.17;;
7231;SDS011;3657;49.630;11.018;2023-07-09T05:34:21;35.50;;;34.20;;
7231;SDS011;3657;49.630;11.018;2023-07-09T05:36:48;37.47;;;35.97;;
7231;SDS011;3657;49.630;11.018;2023-07-09T05:39:15;37.10;;;35.67;;
7231;SDS011;3657;49.630;11.018;2023-07-09T05:41:42;37.30;;;35.40;;
7231;SDS011;3657;49.630;11.018;2023-07-09T05:44:09;32.50;;;31.40;;
7231;SDS011;3657;49.630;11.018;2023-07-09T05:46:36;33.23;;;32.03;;
7231;SDS011;3657;49.630;11.018;2023-07-09T05:49:03;34.50;;;33.10;;
7231;SDS011;3657;49.630;11.018;2023-07-09T05:51:31;32.00;;;30.80;;
7231;SDS011;3657;49.630;11.018;2023-07-09T05:53:58;33.40;;;32.20;;
7231;SDS011;3657;49.630;11.018;2023-07-09T05:56:26;30.90;;;29.80;;
7231;SDS011;3657;49.630;11.018;2023-07-09T05:58:53;30.13;;;29.03;;
7231;SDS011;3657;49.630;11.018;2023-07-09T06:01:21;29.87;;;28.83;;
7231;SDS011;3657;49.630;11.018;2023-07-09T06:03:48;30.37;;;29.37;;
7231;SDS011;3657;49.630;11.018;2023-07-09T06:06:15;30.13;;;29.03;;
7231;SDS011;3657;49.630;11.018;2023-07-09T06:08:42;30.10;;;28.90;;
7231;SDS011;3657;49.630;11.018;2023-07-09T06:11:08;26.90;;;25.90;;
7231;SDS011;3657;49.630;11.018;2023-07-09T06:13:36;28.83;;;27.93;;
7231;SDS011;3657;49.630;11.018;2023-07-09T06:16:03;28.30;;;27.37;;
7231;SDS011;3657;49.630;11.018;2023-07-09T06:18:30;26.93;;;26.13;;
7231;SDS011;3657;49.630;11.018;2023-07-09T06:20:58;27.87;;;26.97;;
7231;SDS011;3657;49.630;11.018;2023-07-09T06:23:26;27.77;;;26.87;;
7231;SDS011;3657;49.630;11.018;2023-07-09T06:25:53;27.03;;;26.23;;
7231;SDS011;3657;49.630;11.018;2023-07-09T06:28:21;28.77;;;27.67;;
7231;SDS011;3657;49.630;11.018;2023-07-09T06:30:50;29.10;;;28.20;;
7231;SDS011;3657;49.630;11.018;2023-07-09T06:33:18;29.40;;;28.50;;
7231;SDS011;3657;49.630;11.018;2023-07-09T06:35:45;29.67;;;28.77;;
7231;SDS011;3657;49.630;11.018;2023-07-09T06:38:13;31.77;;;30.67;;
7231;SDS011;3657;49.630;11.018;2023-07-09T06:40:39;30.23;;;29.30;;
7231;SDS011;3657;49.630;11.018;2023-07-09T06:43:06;29.90;;;28.90;;
7231;SDS011;3657;49.630;11.018;2023-07-09T06:45:33;27.97;;;27.13;;
7231;SDS011;3657;49.630;11.018;2023-07-09T06:48:01;28.30;;;27.27;;
7231;SDS011;3657;49.630;11.018;2023-07-09T06:50:28;28.63;;;27.50;;
7231;SDS011;3657;49.630;11.018;2023-07-09T06:52:55;29.37;;;28.27;;
7231;SDS011;3657;49.630;11.018;2023-07-09T06:55:22;28.13;;;27.23;;
7231;SDS011;3657;49.630;11.018;2023-07-09T06:57:48;27.07;;;26.23;;
7231;SDS011;3657;49.630;11.018;2023-07-09T07:00:15;30.03;;;28.63;;
7231;SDS011;3657;49.630;11.018;2023-07-09T07:02:42;27.37;;;26.50;;
7231;SDS011;3657;49.630;11.018;2023-07-09T07:05:11;26.30;;;25.60;;
7231;SDS011;3657;49.630;11.018;2023-07-09T07:07:38;26.27;;;25.47;;
7231;SDS011;3657;49.630;11.018;2023-07-09T07:10:05;28.73;;;27.40;;
7231;SDS011;3657;49.630;11.018;2023-07-09T07:12:44;26.93;;;25.73;;
7231;SDS011;3657;49.630;11.018;2023-07-09T07:15:12;25.80;;;25.03;;
7231;SDS011;3657;49.630;11.018;2023-07-09T07:17:41;26.60;;;25.70;;
7231;SDS011;3657;49.630;11.018;2023-07-09T07:20:08;26.00;;;25.10;;
7231;SDS011;3657;49.630;11.018;2023-07-09T07:22:38;27.37;;;26.27;;
7231;SDS011;3657;49.630;11.018;2023-07-09T07:25:05;25.80;;;24.83;;
7231;SDS011;3657;49.630;11.018;2023-07-09T07:27:33;26.87;;;25.83;;
7231;SDS011;3657;49.630;11.018;2023-07-09T07:30:01;26.67;;;25.53;;
7231;SDS011;3657;49.630;11.018;2023-07-09T07:32:27;26.37;;;25.50;;
7231;SDS011;3657;49.630;11.018;2023-07-09T07:34:54;24.90;;;24.13;;
7231;SDS011;3657;49.630;11.018;2023-07-09T07:37:22;29.30;;;28.42;;
7231;SDS011;3657;49.630;11.018;2023-07-09T07:39:49;29.70;;;28.60;;
7231;SDS011;3657;49.630;11.018;2023-07-09T07:42:15;32.27;;;31.07;;
7231;SDS011;3657;49.630;11.018;2023-07-09T07:44:42;33.40;;;32.23;;
7231;SDS011;3657;49.630;11.018;2023-07-09T07:47:09;30.57;;;29.60;;
7231;SDS011;3657;49.630;11.018;2023-07-09T07:49:37;32.93;;;31.80;;
7231;SDS011;3657;49.630;11.018;2023-07-09T07:52:04;29.17;;;28.30;;
7231;SDS011;3657;49.630;11.018;2023-07-09T07:54:32;35.28;;;33.67;;
7231;SDS011;3657;49.630;11.018;2023-07-09T07:56:59;35.90;;;34.53;;
7231;SDS011;3657;49.630;11.018;2023-07-09T07:59:26;32.20;;;30.92;;
7231;SDS011;3657;49.630;11.018;2023-07-09T08:01:53;31.85;;;30.73;;
7231;SDS011;3657;49.630;11.018;2023-07-09T08:04:20;28.65;;;27.75;;
7231;SDS011;3657;49.630;11.018;2023-07-09T08:06:46;27.67;;;27.00;;
7231;SDS011;3657;49.630;11.018;2023-07-09T08:09:13;29.48;;;28.55;;
7231;SDS011;3657;49.630;11.018;2023-07-09T08:11:42;28.05;;;27.17;;
7231;SDS011;3657;49.630;11.018;2023-07-09T08:14:09;28.65;;;27.67;;
7231;SDS011;3657;49.630;11.018;2023-07-09T08:16:36;27.95;;;27.13;;
7231;SDS011;3657;49.630;11.018;2023-07-09T08:19:02;28.23;;;27.27;;
7231;SDS011;3657;49.630;11.018;2023-07-09T08:21:29;26.13;;;25.45;;
7231;SDS011;3657;49.630;11.018;2023-07-09T08:23:56;27.67;;;26.77;;
7231;SDS011;3657;49.630;11.018;2023-07-09T08:26:23;24.20;;;23.17;;
7231;SDS011;3657;49.630;11.018;2023-07-09T08:28:51;27.50;;;26.15;;
7231;SDS011;3657;49.630;11.018;2023-07-09T08:31:18;26.15;;;25.25;;
7231;SDS011;3657;49.630;11.018;2023-07-09T08:33:45;25.70;;;24.92;;
7231;SDS011;3657;49.630;11.018;2023-07-09T08:36:11;23.85;;;23.20;;
7231;SDS011;3657;49.630;11.018;2023-07-09T08:38:38;25.38;;;24.63;;
7231;SDS011;3657;49.630;11.018;2023-07-09T08:41:08;22.48;;;21.88;;
7231;SDS011;3657;49.630;11.018;2023-07-09T08:43:46;24.25;;;22.85;;
7231;SDS011;3657;49.630;11.018;2023-07-09T08:46:23;23.23;;;22.52;;
7231;SDS011;3657;49.630;11.018;2023-07-09T08:48:55;23.13;;;22.52;;
7231;SDS011;3657;49.630;11.018;2023-07-09T08:51:26;23.23;;;22.50;;
7231;SDS011;3657;49.630;11.018;2023-07-09T08:53:59;22.13;;;21.48;;
7231;SDS011;3657;49.630;11.018;2023-07-09T08:56:27;22.73;;;21.98;;
7231;SDS011;3657;49.630;11.018;2023-07-09T08:58:58;25.13;;;24.20;;
7231;SDS011;3657;49.630;11.018;2023-07-09T09:01:29;21.35;;;20.75;;
7231;SDS011;3657;49.630;11.018;2023-07-09T09:04:03;23.85;;;22.92;;
7231;SDS011;3657;49.630;11.018;2023-07-09T09:06:33;21.50;;;20.90;;
7231;SDS011;3657;49.630;11.018;2023-07-09T09:09:02;24.35;;;23.67;;
7231;SDS011;3657;49.630;11.018;2023-07-09T09:11:39;22.70;;;22.00;;
7231;SDS011;3657;49.630;11.018;2023-07-09T09:14:15;21.67;;;21.08;;
7231;SDS011;3657;49.630;11.018;2023-07-09T09:16:53;21.85;;;21.02;;
7231;SDS011;3657;49.630;11.018;2023-07-09T09:19:22;21.23;;;20.83;;
7231;SDS011;3657;49.630;11.018;2023-07-09T09:21:53;22.77;;;22.17;;
7231;SDS011;3657;49.630;11.018;2023-07-09T09:24:25;21.95;;;21.45;;
7231;SDS011;3657;49.630;11.018;2023-07-09T09:26:55;22.77;;;22.10;;
7231;SDS011;3657;49.630;11.018;2023-07-09T09:29:24;20.63;;;20.02;;
7231;SDS011;3657;49.630;11.018;2023-07-09T09:31:54;20.27;;;19.77;;
7231;SDS011;3657;49.630;11.018;2023-07-09T09:34:23;19.58;;;18.92;;
7231;SDS011;3657;49.630;11.018;2023-07-09T09:36:52;19.02;;;18.60;;
7231;SDS011;3657;49.630;11.018;2023-07-09T09:39:19;18.00;;;17.60;;
7231;SDS011;3657;49.630;11.018;2023-07-09T09:41:46;20.17;;;19.58;;
7231;SDS011;3657;49.630;11.018;2023-07-09T09:44:20;18.02;;;17.42;;
7231;SDS011;3657;49.630;11.018;2023-07-09T09:46:50;16.67;;;16.38;;
7231;SDS011;3657;49.630;11.018;2023-07-09T09:49:18;17.92;;;17.52;;
7231;SDS011;3657;49.630;11.018;2023-07-09T09:51:46;19.15;;;18.42;;
7231;SDS011;3657;49.630;11.018;2023-07-09T09:54:16;18.27;;;17.77;;
7231;SDS011;3657;49.630;11.018;2023-07-09T09:56:45;17.58;;;16.95;;
7231;SDS011;3657;49.630;11.018;2023-07-09T09:59:15;17.83;;;17.27;;
7231;SDS011;3657;49.630;11.018;2023-07-09T10:01:44;19.08;;;18.35;;
7231;SDS011;3657;49.630;11.018;2023-07-09T10:04:13;17.13;;;16.60;;
7231;SDS011;3657;49.630;11.018;2023-07-09T10:06:46;18.10;;;17.35;;
7231;SDS011;3657;49.630;11.018;2023-07-09T10:09:17;18.17;;;17.52;;
7231;SDS011;3657;49.630;11.018;2023-07-09T10:11:52;20.70;;;19.95;;
7231;SDS011;3657;49.630;11.018;2023-07-09T10:14:31;17.13;;;16.48;;
7231;SDS011;3657;49.630;11.018;2023-07-09T10:17:04;18.45;;;18.02;;
7231;SDS011;3657;49.630;11.018;2023-07-09T10:19:49;16.67;;;16.27;;
7231;SDS011;3657;49.630;11.018;2023-07-09T10:22:28;17.33;;;16.92;;
7231;SDS011;3657;49.630;11.018;2023-07-09T10:25:07;17.15;;;16.80;;
7231;SDS011;3657;49.630;11.018;2023-07-09T10:27:44;17.15;;;16.65;;
7231;SDS011;3657;49.630;11.018;2023-07-09T10:30:25;18.63;;;18.13;;
7231;SDS011;3657;49.630;11.018;2023-07-09T10:33:08;18.00;;;17.50;;
7231;SDS011;3657;49.630;11.018;2023-07-09T10:35:37;20.42;;;19.83;;
7231;SDS011;3657;49.630;11.018;2023-07-09T10:38:14;18.58;;;18.08;;
7231;SDS011;3657;49.630;11.018;2023-07-09T10:40:58;19.15;;;18.58;;
7231;SDS011;3657;49.630;11.018;2023-07-09T10:43:35;28.08;;;27.02;;
7231;SDS011;3657;49.630;11.018;2023-07-09T10:46:05;24.75;;;24.02;;
7231;SDS011;3657;49.630;11.018;2023-07-09T10:48:37;20.27;;;19.63;;
7231;SDS011;3657;49.630;11.018;2023-07-09T10:51:08;19.40;;;18.80;;
7231;SDS011;3657;49.630;11.018;2023-07-09T10:53:44;25.90;;;25.20;;
7231;SDS011;3657;49.630;11.018;2023-07-09T10:56:15;22.65;;;21.98;;
7231;SDS011;3657;49.630;11.018;2023-07-09T10:58:46;17.58;;;17.17;;
7231;SDS011;3657;49.630;11.018;2023-07-09T11:01:30;17.90;;;17.17;;
7231;SDS011;3657;49.630;11.018;2023-07-09T11:04:05;21.05;;;20.42;;
7231;SDS011;3657;49.630;11.018;2023-07-09T11:06:40;17.48;;;16.88;;
7231;SDS011;3657;49.630;11.018;2023-07-09T11:09:14;17.92;;;17.33;;
7231;SDS011;3657;49.630;11.018;2023-07-09T11:11:49;18.35;;;17.85;;
7231;SDS011;3657;49.630;11.018;2023-07-09T11:14:22;19.85;;;19.33;;
7231;SDS011;3657;49.630;11.018;2023-07-09T11:16:53;17.02;;;16.52;;
7231;SDS011;3657;49.630;11.018;2023-07-09T11:19:22;17.17;;;16.77;;
7231;SDS011;3657;49.630;11.018;2023-07-09T11:21:59;18.73;;;18.17;;
7231;SDS011;3657;49.630;11.018;2023-07-09T11:24:34;16.63;;;16.00;;
7231;SDS011;3657;49.630;11.018;2023-07-09T11:27:19;17.85;;;17.35;;
7231;SDS011;3657;49.630;11.018;2023-07-09T11:29:48;19.58;;;18.98;;
7231;SDS011;3657;49.630;11.018;2023-07-09T11:32:22;16.88;;;16.30;;
7231;SDS011;3657;49.630;11.018;2023-07-09T11:34:49;17.98;;;17.42;;
7231;SDS011;3657;49.630;11.018;2023-07-09T11:37:16;16.73;;;16.33;;
7231;SDS011;3657;49.630;11.018;2023-07-09T11:39:46;16.98;;;16.48;;
7231;SDS011;3657;49.630;11.018;2023-07-09T11:42:24;15.65;;;15.35;;
7231;SDS011;3657;49.630;11.018;2023-07-09T11:44:58;15.85;;;15.35;;
7231;SDS011;3657;49.630;11.018;2023-07-09T11:47:31;16.20;;;15.57;;
7231;SDS011;3657;49.630;11.018;2023-07-09T11:50:02;14.93;;;14.63;;
7231;SDS011;3657;49.630;11.018;2023-07-09T11:52:32;14.45;;;14.05;;
7231;SDS011;3657;49.630;11.018;2023-07-09T11:55:03;15.93;;;15.45;;
7231;SDS011;3657;49.630;11.018;2023-07-09T11:57:46;14.40;;;14.00;;
7231;SDS011;3657;49.630;11.018;2023-07-09T12:00:14;14.57;;;14.20;;
7231;SDS011;3657;49.630;11.018;2023-07-09T12:02:41;16.70;;;16.20;;
7231;SDS011;3657;49.630;11.018;2023-07-09T12:05:08;14.43;;;14.13;;
7231;SDS011;3657;49.630;11.018;2023-07-09T12:07:36;16.85;;;16.33;;
7231;SDS011;3657;49.630;11.018;2023-07-09T12:10:21;14.65;;;14.25;;
7231;SDS011;3657;49.630;11.018;2023-07-09T12:12:53;15.70;;;15.27;;
7231;SDS011;3657;49.630;11.018;2023-07-09T12:15:22;15.88;;;15.35;;
7231;SDS011;3657;49.630;11.018;2023-07-09T12:17:54;16.25;;;15.75;;
7231;SDS011;3657;49.630;11.018;2023-07-09T12:20:22;14.77;;;14.18;;
7231;SDS011;3657;49.630;11.018;2023-07-09T12:22:49;16.63;;;15.93;;
7231;SDS011;3657;49.630;11.018;2023-07-09T12:25:21;15.60;;;15.10;;
7231;SDS011;3657;49.630;11.018;2023-07-09T12:27:50;15.25;;;14.57;;
7231;SDS011;3657;49.630;11.018;2023-07-09T12:30:17;15.80;;;15.40;;
7231;SDS011;3657;49.630;11.018;2023-07-09T12:32:45;16.05;;;15.38;;
7231;SDS011;3657;49.630;11.018;2023-07-09T12:35:14;16.05;;;15.65;;
7231;SDS011;3657;49.630;11.018;2023-07-09T12:37:43;14.77;;;14.48;;
7231;SDS011;3657;49.630;11.018;2023-07-09T12:40:13;15.80;;;15.40;;
7231;SDS011;3657;49.630;11.018;2023-07-09T12:42:44;15.30;;;14.90;;
7231;SDS011;3657;49.630;11.018;2023-07-09T12:45:15;15.50;;;15.10;;
7231;SDS011;3657;49.630;11.018;2023-07-09T12:47:44;15.90;;;15.50;;
7231;SDS011;3657;49.630;11.018;2023-07-09T12:50:17;15.88;;;15.48;;
7231;SDS011;3657;49.630;11.018;2023-07-09T12:52:46;15.35;;;14.93;;
7231;SDS011;3657;49.630;11.018;2023-07-09T12:55:21;16.67;;;16.25;;
7231;SDS011;3657;49.630;11.018;2023-07-09T12:57:51;15.95;;;15.45;;
7231;SDS011;3657;49.630;11.018;2023-07-09T13:00:20;16.33;;;16.02;;
7231;SDS011;3657;49.630;11.018;2023-07-09T13:02:51;15.20;;;14.90;;
7231;SDS011;3657;49.630;11.018;2023-07-09T13:05:21;15.32;;;14.98;;
7231;SDS011;3657;49.630;11.018;2023-07-09T13:07:51;15.50;;;15.10;;
7231;SDS011;3657;49.630;11.018;2023-07-09T13:10:21;15.90;;;15.23;;
7231;SDS011;3657;49.630;11.018;2023-07-09T13:12:52;15.20;;;14.80;;
7231;SDS011;3657;49.630;11.018;2023-07-09T13:15:25;19.40;;;18.80;;
7231;SDS011;3657;49.630;11.018;2023-07-09T13:17:57;16.70;;;16.30;;
7231;SDS011;3657;49.630;11.018;2023-07-09T13:20:26;14.75;;;14.35;;
7231;SDS011;3657;49.630;11.018;2023-07-09T13:22:54;19.77;;;19.30;;
7231;SDS011;3657;49.630;11.018;2023-07-09T13:25:21;17.95;;;17.35;;
7231;SDS011;3657;49.630;11.018;2023-07-09T13:27:47;17.85;;;17.45;;
7231;SDS011;3657;49.630;11.018;2023-07-09T13:30:16;18.60;;;17.98;;
7231;SDS011;3657;49.630;11.018;2023-07-09T13:32:43;19.88;;;19.13;;
7231;SDS011;3657;49.630;11.018;2023-07-09T13:35:14;19.38;;;18.75;;
7231;SDS011;3657;49.630;11.018;2023-07-09T13:37:42;19.67;;;19.08;;
7231;SDS011;3657;49.630;11.018;2023-07-09T13:40:09;20.88;;;20.42;;
7231;SDS011;3657;49.630;11.018;2023-07-09T13:42:38;18.27;;;17.77;;
7231;SDS011;3657;49.630;11.018;2023-07-09T13:45:09;21.10;;;20.42;;
7231;SDS011;3657;49.630;11.018;2023-07-09T13:47:44;18.92;;;18.40;;
7231;SDS011;3657;49.630;11.018;2023-07-09T13:50:12;19.63;;;19.23;;
7231;SDS011;3657;49.630;11.018;2023-07-09T13:52:39;20.17;;;19.73;;
7231;SDS011;3657;49.630;11.018;2023-07-09T13:55:08;18.30;;;17.90;;
7231;SDS011;3657;49.630;11.018;2023-07-09T13:57:41;15.50;;;15.07;;
7231;SDS011;3657;49.630;11.018;2023-07-09T14:00:10;15.18;;;14.55;;
7231;SDS011;3657;49.630;11.018;2023-07-09T14:02:39;14.82;;;14.43;;
7231;SDS011;3657;49.630;11.018;2023-07-09T14:05:07;14.52;;;14.23;;
7231;SDS011;3657;49.630;11.018;2023-07-09T14:07:36;14.93;;;14.63;;
7231;SDS011;3657;49.630;11.018;2023-07-09T14:10:05;15.90;;;15.02;;
7231;SDS011;3657;49.630;11.018;2023-07-09T14:12:36;14.70;;;14.40;;
7231;SDS011;3657;49.630;11.018;2023-07-09T14:15:09;14.73;;;14.13;;
7231;SDS011;3657;49.630;11.018;2023-07-09T14:17:40;14.80;;;14.35;;
7231;SDS011;3657;49.630;11.018;2023-07-09T14:20:09;15.57;;;15.20;;
7231;SDS011;3657;49.630;11.018;2023-07-09T14:22:37;13.13;;;12.73;;
7231;SDS011;3657;49.630;11.018;2023-07-09T14:25:05;14.40;;;13.90;;
7231;SDS011;3657;49.630;11.018;2023-07-09T14:27:32;14.63;;;14.32;;
7231;SDS011;3657;49.630;11.018;2023-07-09T14:29:59;15.93;;;15.27;;
7231;SDS011;3657;49.630;11.018;2023-07-09T14:32:33;14.45;;;14.15;;
7231;SDS011;3657;49.630;11.018;2023-07-09T14:35:03;15.43;;;14.93;;
7231;SDS011;3657;49.630;11.018;2023-07-09T14:37:37;17.58;;;16.95;;
7231;SDS011;3657;49.630;11.018;2023-07-09T14:40:04;16.10;;;15.43;;
7231;SDS011;3657;49.630;11.018;2023-07-09T14:42:32;17.00;;;15.93;;
7231;SDS011;3657;49.630;11.018;2023-07-09T14:44:58;15.68;;;15.18;;